Wheat Ridge, CO (80034)

2:50 PM MDT on June 02, 2015 (GMT -0600)
Crown Hill Park | | Change Station
CLOSE
Current Station
Personal Weather Station
Location: Wheat Ridge, CO
Elevation: 5480 ft
Nearby Weather Stations

Elev 5480 ft 39.77 °N, 105.10 °W | Updated 4 minutes ago

Clear
Clear
91.9 °F
Feels Like 88 °F
N
0.0
Wind Variable Wind from East

Today
High -- | Low -- °F
--% Chance of Precip.
Yesterday
High -- | Low -- °F
Precip. -- in
5:33 AM 8:23 PM
Full, 100% visible
Pressure 29.96 in
Visibility 70.0 miles
Clouds Few 4000 ft
Scattered Clouds 10000 ft
Scattered Clouds 20000 ft
Heat Index 88 °F
Dew Point 44 °F
Humidity 19%
Rainfall 0.00 in
Snow Depth Not available.
UV 10 out of 12
Pollen 8.70 out of 12
Air Quality Not available.
Flu Activity Sporadic
METAR KBJC 021946Z 08006KT 70SM FEW040 SCT100 SCT200 29/02 A2996

More Conditions Fewer Conditions

Pressure 29.96 in
Visibility 70.0 miles
Clouds Few 4000 ft
Scattered Clouds 10000 ft
Scattered Clouds 20000 ft
Heat Index 88 °F
Dew Point 44 °F
Humidity 19%
Rainfall 0.00 in
Snow Depth Not available.
UV 10 out of 12
Pollen 8.70 out of 12
Air Quality Not available.
Flu Activity Sporadic
METAR KBJC 021946Z 08006KT 70SM FEW040 SCT100 SCT200 29/02 A2996

More Conditions Fewer Conditions

10-Day Weather Forecast

×

Almanac

Astronomy

Jun. 02, 2015 Rise Set
Actual Time
Civil Twilight
Nautical Twilight
Astronomical Twilight
Moon
Length of Visible Light
Length of Day
Tomorrow will be .
, % of the Moon is Illuminated

Today's Extremes

State Highs State Lows

Community

WunderPhotos

Upload Photos

1,826,022 photos uploaded!

WunderBlogs® & News

Nearby

Air Quality

  Air Quality AQ Index Pollutant
Not available.

Snow Depth

Station Depth Elevation

Earthquake Activity

City Distance Mag. Time & Date
Minimum magnitude displayed is 2.5.

Coastal Water Temperatures

Place Temperature

Stations

Nearby Weather Stations

Station Location Temp. Windchill Dew Point Humidity Wind Precip. Elev Updated Type